Weather observations for the past three days for
Marysville, Yuba County Airport
Metric (Imperial)
Date Time (pdt) Wind (kph) Vis. (km) Weather Sky Cond. Temperature (ºC) Relative Humidity Wind Chill (°C) Heat Index (°C) Pressure Precipitation (cm)
Air Dwpt 6 hour altimeter (cm) sea level (mb) 1 hr 3 hr 6 hr
Max. Min.
04 02:53 SE 9 16.09 Partly Cloudy SCT100 12.2 8.9 80% 76.02 1013.9
04 01:53 SE 13 16.09 Partly Cloudy SCT100 12.8 8.9 77% 76.02 1013.8
04 00:53 SE 13 16.09 Overcast OVC095 13.9 8.9 72% 76.02 1013.9
03 23:53 SE 15 16.09 Fair CLR 14.4 9.4 72% 76.02 1013.7
03 22:53 SE 15 16.09 Overcast OVC055 15.6 10 20 15.6 70% 76 1013.5
03 21:53 SE 13 16.09 Overcast OVC055 16.1 10 67% 75.95 1012.8
03 20:53 SE 22 16.09 Fair CLR 16.7 10 65% 75.9 1012.2
03 19:53 SE 19 16.09 Fair CLR 17.8 9.4 58% 75.82 1011.2
03 18:53 SE 15 16.09 Fair CLR 19.4 9.4 53% 75.82 1011.0
03 17:53 SE 17 16.09 Fair CLR 19.4 10 55% 75.82 1011.2
03 16:53 SE 15 16.09 Fair CLR 18.9 9.4 20.6 15.6 54% 75.84 1011.5
03 15:53 SE 24 G 37 16.09 Fair CLR 19.4 8.9 51% 75.87 1011.8
03 14:53 SE 22 16.09 A Few Clouds FEW120 18.9 9.4 54% 75.84 1011.6
03 13:53 S 26 G 41 16.09 Partly Cloudy SCT120 20 8.3 47% 75.84 1011.4
03 12:53 S 26 G 41 16.09 Fair CLR 19.4 8.9 51% 75.87 1011.7
03 11:53 S 24 G 37 16.09 Fair CLR 17.2 9.4 60% 75.9 1012.2
03 10:53 SE 17 G 39 16.09 A Few Clouds FEW110 15.6 9.4 16.7 12.2 67% 75.9 1012.0
03 09:53 SE 19 16.09 Fair CLR 14.4 10 75% 75.87 1011.9
03 08:53 SE 26 G 39 16.09 Fair CLR 15 10 72% 75.84 1011.4
03 07:53 SE 26 G 33 16.09 Fair CLR 13.9 9.4 74% 75.79 1010.9
03 06:53 SE 15 16.09 Fair CLR 12.2 9.4 83% 75.77 1010.3
03 05:53 SE 15 16.09 Fair CLR 12.2 9.4 83% 75.72 1009.6
03 04:53 SE 13 16.09 A Few Clouds FEW120 12.8 9.4 15 12.2 80% 75.72 1009.6
03 03:53 SE 7 16.09 Fair CLR 12.8 9.4 80% 75.72 1009.6
03 02:53 SE 7 16.09 Partly Cloudy SCT120 12.8 9.4 80% 75.72 1009.8
03 01:53 S 7 16.09 Fair CLR 13.3 9.4 77% 75.74 1010.2
03 00:53 SE 11 16.09 Fair CLR 13.9 9.4 74% 75.77 1010.5
02 23:53 SE 11 16.09 Fair CLR 14.4 9.4 72% 75.79 1010.6
02 22:53 SE 11 16.09 Fair CLR 15 11.1 24.4 15 78% 75.79 1010.8
02 21:53 S 13 16.09 Fair CLR 16.1 10.6 70% 75.79 1010.8
02 20:53 S 11 16.09 Fair CLR 17.2 10.6 65% 75.74 1009.9
02 19:53 S 15 16.09 Fair CLR 19.4 11.1 59% 75.69 1009.5
02 18:53 S 15 16.09 Fair CLR 22.2 11.1 50% 75.69 1009.2
02 17:53 SE 19 16.09 Fair CLR 23.9 10.6 43% 25 75.69 1009.3
02 16:53 SE 20 16.09 Fair CLR 24.4 10.6 25 17.2 42% 25 75.69 1009.4
02 15:53 S 20 16.09 Fair CLR 24.4 11.1 43% 26 75.74 1010.1
02 14:53 S 17 16.09 Fair CLR 23.3 11.1 46% 75.82 1011.2
02 13:53 S 19 16.09 Fair CLR 22.8 11.7 50% 75.87 1011.8
02 12:53 S 17 16.09 Fair CLR 21.1 11.7 55% 75.92 1012.3
02 11:53 S 17 16.09 Fair CLR 18.3 11.1 63% 75.92 1012.5
02 10:53 S 20 16.09 Fair CLR 17.2 11.1 17.2 12.8 68% 75.95 1012.8
02 09:53 S 15 16.09 Fair CLR 16.1 10.6 70% 75.92 1012.5
02 08:53 S 19 16.09 Fair CLR 15 10 72% 75.9 1012.1
02 07:53 SE 17 16.09 Mostly Cloudy BKN110 14.4 10 75% 75.87 1011.9
02 06:53 SE 15 16.09 A Few Clouds FEW100 13.3 10 81% 75.84 1011.3
02 05:53 S 11 16.09 Fair CLR 13.3 10 81% 75.82 1011.0
02 04:53 S 11 16.09 Fair CLR 13.9 10 19.4 13.9 78% 75.79 1010.7
02 03:53 SE 13 16.09 Fair CLR 14.4 10.6 78% 75.79 1010.7
02 02:53 SE 17 16.09 Fair CLR 15.6 12.2 80% 75.79 1010.7
02 01:53 SE 17 16.09 Fair CLR 16.1 12.8 81% 75.82 1011.0
02 00:53 S 15 16.09 Fair CLR 17.8 13.9 78% 75.82 1011.2
01 23:53 SE 11 16.09 Fair CLR 17.8 13.9 78% 75.82 1011.1
01 22:53 SE 19 16.09 Fair CLR 19.4 14.4 28.3 19.4 73% 75.82 1011.1
01 21:53 S 11 16.09 Fair CLR 20.6 14.4 68% 75.79 1010.8
01 20:53 SE 6 16.09 Fair CLR 22.2 15 64% 75.77 1010.3
01 19:53 SE 7 16.09 Fair CLR 25 14.4 52% 26 75.72 1009.7
01 18:53 E 11 16.09 Fair CLR 26.7 13.9 45% 27 75.72 1009.8
01 17:53 SE 17 16.09 Fair CLR 27.8 13.9 43% 28 75.74 1010.1
01 16:53 SE 7 16.09 Fair CLR 28.3 11.1 28.9 22.2 34% 28 75.77 1010.3
01 15:53 Calm 16.09 Fair CLR 27.8 10.6 34% 27 75.82 1011.0
01 14:53 Calm 16.09 Fair CLR 27.2 12.2 39% 27 75.9 1012.1
01 13:53 Calm 16.09 Fair CLR 26.1 13.3 45% 26 75.95 1012.7
01 12:53 Calm 16.09 Fair CLR 24.4 12.2 47% 26 75.97 1013.2
01 11:53 Calm 16.09 Fair CLR 23.3 11.7 48% 76.02 1013.8
01 10:53 Calm 16.09 Fair CLR 22.2 11.7 22.2 12.2 52% 76.05 1014.3
01 09:53 Calm 16.09 Fair CLR 19.4 11.7 61% 76.05 1014.3
01 08:53 Vrbl 7 16.09 Fair CLR 17.2 11.7 70% 76.07 1014.4
01 07:53 S 9 16.09 Fair CLR 15 11.1 78% 76.05 1014.0
01 06:53 Calm 16.09 Fair CLR 13.3 11.1 87% 76 1013.5
01 05:53 Calm 16.09 Fair CLR 12.8 10.6 87% 75.95 1012.7
01 04:53 S 7 16.09 Fair CLR 13.9 11.1 19.4 13.9 83% 75.92 1012.3
01 03:53 Calm 16.09 Fair CLR 14.4 11.1 81% 75.92 1012.4
Date Time (pdt) Wind (kph) Vis. (km) Weather Sky Cond. Air Dwpt Max. Min. Relative Humidity Wind Chill (°C) Heat Index (°C) altimeter (cm) sea level (mb) 1 hr 3 hr 6 hr
6 hour
Temperature (ºC) Pressure Precipitation (cm)